Time;durP1;ratioP1;P1;durP2;ratioP2;P2;SDS_P1;SDS_P2;PMS_P1;PMS_P2;Temp;Humidity;BMP_temperature;BMP_pressure;BME280_temperature;BME280_humidity;BME280_pressure;Samples;Min_cycle;Max_cycle;Signal;HPM_P1;HPM_P2
2022/11/13 00:01:58;;;;;;;2.57;1.57;;;8.90;49.10;;;;;;5029128;28;20730;-74
2022/11/13 00:04:24;;;;;;;2.57;1.57;;;8.90;50.20;;;;;;5030049;28;20195;-74
2022/11/13 00:06:50;;;;;;;6.13;2.50;;;9.10;49.40;;;;;;5031246;28;20431;-74
2022/11/13 00:09:15;;;;;;;3.03;1.97;;;9.30;48.10;;;;;;5030679;28;20177;-74
2022/11/13 00:11:41;;;;;;;2.20;1.60;;;9.40;47.10;;;;;;5028819;28;20730;-74
2022/11/13 00:14:06;;;;;;;3.50;1.97;;;9.30;47.80;;;;;;5030324;28;20664;-75
2022/11/13 00:16:32;;;;;;;2.40;1.50;;;9.10;48.60;;;;;;5030470;28;20192;-74
2022/11/13 00:18:57;;;;;;;2.87;1.93;;;9.40;49.10;;;;;;5030911;28;20177;-74
2022/11/13 00:21:26;;;;;;;4.10;1.93;;;9.10;49.00;;;;;;5029245;28;20653;-74
2022/11/13 00:23:52;;;;;;;2.22;1.55;;;9.20;48.70;;;;;;5028761;28;20552;-74
2022/11/13 00:26:26;;;;;;;2.50;1.77;;;9.40;49.10;;;;;;5030158;28;20169;-74
2022/11/13 00:28:54;;;;;;;3.67;2.22;;;9.20;48.90;;;;;;5030646;28;20187;-74
2022/11/13 00:31:20;;;;;;;4.97;2.83;;;8.60;50.40;;;;;;5031214;28;20201;-74
2022/11/13 00:33:45;;;;;;;4.63;2.80;;;8.60;50.80;;;;;;5029335;28;20184;-74
2022/11/13 00:36:16;;;;;;;4.47;2.57;;;8.70;51.30;;;;;;5030787;28;20508;-74
2022/11/13 00:38:42;;;;;;;2.95;2.00;;;8.90;49.60;;;;;;5031010;28;20216;-74
2022/11/13 00:41:08;;;;;;;3.47;1.97;;;9.10;48.50;;;;;;5029889;28;20224;-74
2022/11/13 00:43:33;;;;;;;2.10;1.60;;;9.10;48.00;;;;;;5028778;28;20308;-75
2022/11/13 00:45:59;;;;;;;2.60;1.83;;;9.10;48.80;;;;;;5028322;28;20175;-75
2022/11/13 00:48:24;;;;;;;3.20;1.63;;;9.00;48.70;;;;;;5029600;28;20234;-74
2022/11/13 00:50:51;;;;;;;3.27;2.23;;;9.20;49.60;;;;;;5030624;28;20172;-74
2022/11/13 00:53:16;;;;;;;2.08;1.40;;;9.20;47.30;;;;;;5028450;28;20623;-74
2022/11/13 00:55:43;;;;;;;2.10;1.40;;;9.10;46.20;;;;;;5045361;28;20188;-74
2022/11/13 00:58:09;;;;;;;2.42;1.63;;;9.30;46.00;;;;;;5029676;28;20180;-74
2022/11/13 01:00:35;;;;;;;2.53;1.65;;;9.20;45.80;;;;;;5030584;28;20181;-74
2022/11/13 01:03:00;;;;;;;2.17;1.47;;;9.00;46.80;;;;;;5030206;28;20205;-74
2022/11/13 01:05:26;;;;;;;2.97;2.27;;;8.90;47.00;;;;;;5028635;28;20216;-74
2022/11/13 01:07:52;;;;;;;2.53;1.75;;;8.90;47.50;;;;;;5030467;28;20560;-74
2022/11/13 01:10:18;;;;;;;1.90;1.23;;;8.90;48.10;;;;;;5029637;28;20177;-74
2022/11/13 01:12:44;;;;;;;2.00;1.40;;;9.00;47.00;;;;;;5031936;28;20203;-74
2022/11/13 01:15:09;;;;;;;2.20;1.40;;;8.60;47.00;;;;;;5032051;28;20435;-74
2022/11/13 01:17:35;;;;;;;1.80;1.10;;;7.60;54.40;;;;;;5033372;28;20195;-74
2022/11/13 01:20:01;;;;;;;2.77;1.93;;;7.80;53.90;;;;;;5034118;28;20180;-74
2022/11/13 01:22:26;;;;;;;1.80;1.20;;;8.00;53.20;;;;;;5033827;28;20211;-74
2022/11/13 01:24:52;;;;;;;2.03;1.40;;;8.60;50.40;;;;;;5033468;28;20287;-74
2022/11/13 01:27:18;;;;;;;2.37;1.70;;;8.90;48.60;;;;;;5031871;28;20267;-74
2022/11/13 01:29:43;;;;;;;3.50;2.23;;;9.10;46.90;;;;;;5033546;28;20431;-74
2022/11/13 01:32:09;;;;;;;8.40;2.20;;;8.80;47.60;;;;;;5033787;28;20192;-74
2022/11/13 01:34:35;;;;;;;1.80;1.20;;;8.60;49.90;;;;;;5034554;28;20192;-74
2022/11/13 01:37:00;;;;;;;2.17;1.40;;;8.50;49.60;;;;;;5032468;28;20177;-74
2022/11/13 01:39:26;;;;;;;2.43;1.60;;;8.70;48.60;;;;;;5033228;28;20930;-74
2022/11/13 01:41:52;;;;;;;4.87;3.20;;;9.40;47.60;;;;;;5033245;28;20223;-74
2022/11/13 01:44:18;;;;;;;2.10;1.60;;;12.10;47.80;;;;;;5033096;28;20280;-74
2022/11/13 01:46:49;;;;;;;1.80;1.20;;;9.20;46.80;;;;;;5032852;28;20295;-75
2022/11/13 01:49:36;;;;;;;2.00;1.40;;;9.10;46.90;;;;;;5031560;28;20208;-74
2022/11/13 01:52:28;;;;;;;2.40;1.65;;;9.00;47.60;;;;;;5032344;28;20250;-74
2022/11/13 01:55:01;;;;;;;2.83;1.75;;;8.90;49.30;;;;;;5019441;28;20188;-74
2022/11/13 01:57:26;;;;;;;4.05;1.85;;;8.90;48.60;;;;;;5032566;28;20212;-74
2022/11/13 01:59:57;;;;;;;2.07;1.30;;;9.10;47.70;;;;;;5032730;28;20250;-74
2022/11/13 02:02:23;;;;;;;2.13;1.40;;;8.90;47.50;;;;;;5032708;28;20230;-74
2022/11/13 02:04:49;;;;;;;1.90;1.30;;;8.50;49.70;;;;;;5033482;28;20627;-74
2022/11/13 02:07:18;;;;;;;6.13;2.20;;;8.80;49.50;;;;;;5033673;28;20176;-74
2022/11/13 02:09:49;;;;;;;3.35;1.83;;;9.10;48.80;;;;;;5032640;28;20185;-75
2022/11/13 02:12:20;;;;;;;2.22;1.60;;;9.20;47.60;;;;;;5031858;28;20216;-75
2022/11/13 02:14:50;;;;;;;3.85;1.85;;;9.00;47.80;;;;;;5031392;28;20185;-74
2022/11/13 02:17:40;;;;;;;2.28;1.52;;;7.90;52.00;;;;;;5033354;28;20216;-74
2022/11/13 02:20:07;;;;;;;1.90;1.33;;;8.30;50.30;;;;;;5030241;28;20243;-74
2022/11/13 02:22:54;;;;;;;2.33;1.50;;;8.60;49.10;;;;;;5033125;28;20244;-74
2022/11/13 02:25:20;;;;;;;2.50;1.45;;;8.40;49.40;;;;;;5031996;28;20213;-74
2022/11/13 02:27:48;;;;;;;3.90;2.00;;;8.30;49.90;;;;;;5032873;28;20185;-74
2022/11/13 02:30:17;;;;;;;2.00;1.40;;;8.30;50.40;;;;;;5030518;28;20183;-74
2022/11/13 02:32:45;;;;;;;1.90;1.30;;;8.20;50.40;;;;;;5046980;28;20205;-74
2022/11/13 02:35:17;;;;;;;6.40;2.33;;;8.50;48.30;;;;;;5033428;28;20181;-74
2022/11/13 02:37:43;;;;;;;4.80;2.08;;;8.60;48.40;;;;;;5031787;28;20195;-75
2022/11/13 02:40:09;;;;;;;2.10;1.50;;;8.70;47.90;;;;;;5031654;28;20658;-74
2022/11/13 02:42:35;;;;;;;1.90;1.33;;;8.70;48.00;;;;;;5031173;28;20216;-74
2022/11/13 02:45:00;;;;;;;2.27;1.37;;;8.40;48.20;;;;;;5032057;28;20550;-74
2022/11/13 02:47:27;;;;;;;1.90;1.30;;;7.90;48.60;;;;;;5029961;28;21090;-74
2022/11/13 02:49:53;;;;;;;2.65;1.60;;;7.50;51.70;;;;;;5032608;28;20188;-74
2022/11/13 02:52:18;;;;;;;1.90;1.30;;;7.70;51.70;;;;;;5032313;28;20585;-74
2022/11/13 02:54:44;;;;;;;2.10;1.40;;;7.60;51.30;;;;;;5031872;28;20276;-74
2022/11/13 02:57:09;;;;;;;2.83;1.77;;;7.70;51.20;;;;;;5032346;28;20563;-74
2022/11/13 02:59:35;;;;;;;2.00;1.40;;;7.90;50.30;;;;;;5031631;28;20189;-74
2022/11/13 03:02:01;;;;;;;1.80;1.20;;;7.80;50.90;;;;;;5030498;28;20212;-74
2022/11/13 03:04:26;;;;;;;6.67;2.40;;;8.20;48.80;;;;;;5032229;28;20208;-74
2022/11/13 03:06:52;;;;;;;1.80;1.23;;;8.30;48.10;;;;;;5031428;28;20188;-74
2022/11/13 03:09:17;;;;;;;2.30;1.53;;;8.30;48.10;;;;;;5031193;28;20169;-74
2022/11/13 03:11:43;;;;;;;2.30;1.73;;;8.30;48.80;;;;;;5032798;28;20212;-74
2022/11/13 03:14:09;;;;;;;1.90;1.20;;;8.30;48.50;;;;;;5033091;28;20184;-74
2022/11/13 03:16:35;;;;;;;3.00;2.07;;;8.30;48.10;;;;;;5032908;28;20186;-74
2022/11/13 03:19:02;;;;;;;1.90;1.27;;;7.90;48.40;;;;;;5031843;28;21840;-74
2022/11/13 03:21:27;;;;;;;1.80;1.20;;;7.90;49.30;;;;;;5033505;28;20644;-74
2022/11/13 03:23:53;;;;;;;1.90;1.30;;;7.70;50.40;;;;;;5031041;28;20287;-74
2022/11/13 03:26:19;;;;;;;2.83;1.63;;;7.80;50.60;;;;;;5033411;28;20179;-74
2022/11/13 03:28:45;;;;;;;2.47;1.67;;;8.00;48.80;;;;;;5032441;28;20442;-74
2022/11/13 03:31:11;;;;;;;2.15;1.48;;;7.60;50.10;;;;;;5025883;28;20170;-74
2022/11/13 03:33:37;;;;;;;1.80;1.10;;;7.00;52.70;;;;;;5032660;28;20188;-74
2022/11/13 03:36:03;;;;;;;2.20;1.53;;;7.00;53.40;;;;;;5033538;28;20415;-74
2022/11/13 03:38:29;;;;;;;2.22;1.80;;;6.90;53.80;;;;;;5032004;28;20224;-74
2022/11/13 03:40:55;;;;;;;1.80;1.10;;;7.20;54.50;;;;;;5031322;28;20726;-74
2022/11/13 03:43:20;;;;;;;2.00;1.40;;;7.10;52.80;;;;;;5031491;28;20212;-74
2022/11/13 03:45:46;;;;;;;3.87;2.13;;;6.90;54.00;;;;;;5032301;28;20262;-74
2022/11/13 03:48:14;;;;;;;3.13;2.17;;;6.50;54.10;;;;;;5032258;28;20173;-74
2022/11/13 03:50:43;;;;;;;3.25;2.17;;;6.90;54.00;;;;;;5032199;28;20173;-75
2022/11/13 03:53:09;;;;;;;1.85;1.23;;;7.30;51.40;;;;;;5036821;28;20200;-74
2022/11/13 03:55:35;;;;;;;1.90;1.20;;;7.70;50.80;;;;;;5031372;28;20203;-74
2022/11/13 03:58:00;;;;;;;1.80;1.20;;;7.10;51.70;;;;;;5032039;28;20431;-74
2022/11/13 04:00:26;;;;;;;2.60;1.50;;;6.30;55.70;;;;;;5029222;28;20196;-74
2022/11/13 04:02:51;;;;;;;2.53;1.77;;;6.30;58.70;;;;;;5028414;28;20290;-74
2022/11/13 04:05:17;;;;;;;6.13;2.80;;;6.60;57.40;;;;;;5030816;28;20279;-74
2022/11/13 04:07:43;;;;;;;2.27;1.50;;;7.00;54.70;;;;;;5031263;28;20211;-74
2022/11/13 04:10:08;;;;;;;1.90;1.20;;;7.50;52.60;;;;;;5031701;28;20207;-74
2022/11/13 04:12:34;;;;;;;2.30;1.67;;;7.50;52.20;;;;;;5029016;28;20212;-75
2022/11/13 04:14:59;;;;;;;2.63;1.67;;;7.70;50.30;;;;;;5028903;28;20185;-74
2022/11/13 04:17:25;;;;;;;1.87;1.23;;;8.10;50.20;;;;;;5030343;28;20270;-74
2022/11/13 04:19:51;;;;;;;2.83;1.60;;;7.90;49.70;;;;;;5031030;28;20195;-74
2022/11/13 04:22:16;;;;;;;4.50;2.73;;;7.70;50.40;;;;;;5029226;28;20211;-74
2022/11/13 04:24:42;;;;;;;1.80;1.10;;;7.10;54.70;;;;;;5028539;28;20279;-74
2022/11/13 04:27:07;;;;;;;2.30;1.40;;;7.50;52.90;;;;;;5030794;28;20175;-74
2022/11/13 04:29:33;;;;;;;2.00;1.53;;;7.70;51.40;;;;;;5030433;28;20207;-74
2022/11/13 04:31:58;;;;;;;1.90;1.33;;;8.10;49.90;;;;;;5028385;28;20215;-76
2022/11/13 04:34:24;;;;;;;2.23;1.50;;;8.10;49.30;;;;;;5030615;28;20217;-73
2022/11/13 04:36:49;;;;;;;3.00;1.87;;;8.10;49.70;;;;;;5030651;28;20524;-73
2022/11/13 04:39:15;;;;;;;2.53;1.60;;;8.30;49.10;;;;;;5030247;28;20199;-73
2022/11/13 04:44:25;;;;;;;2.00;1.30;;;8.40;48.20;;;;;;5029386;28;20207;-74
2022/11/13 04:46:50;;;;;;;1.90;1.20;;;8.30;48.10;;;;;;5032073;28;20180;-73
2022/11/13 04:49:16;;;;;;;1.90;1.40;;;8.00;47.80;;;;;;5034841;28;20226;-73
2022/11/13 04:51:41;;;;;;;2.77;2.00;;;7.90;47.80;;;;;;5035027;28;20258;-73
2022/11/13 04:54:07;;;;;;;2.57;1.27;;;8.20;48.00;;;;;;5034180;28;20192;-73
2022/11/13 04:56:33;;;;;;;1.73;1.10;;;8.10;49.30;;;;;;5034549;28;20231;-73
2022/11/13 04:58:58;;;;;;;3.20;2.70;;;8.00;50.00;;;;;;5033239;28;20192;-73
2022/11/13 05:01:24;;;;;;;12.80;2.23;;;8.30;50.20;;;;;;5034895;28;20223;-73
2022/11/13 05:03:49;;;;;;;2.67;1.77;;;8.10;49.30;;;;;;5033630;28;20671;-73
2022/11/13 05:06:15;;;;;;;1.93;1.30;;;8.50;48.40;;;;;;5037150;28;20698;-73
2022/11/13 05:08:41;;;;;;;1.80;1.20;;;8.20;48.00;;;;;;5049176;28;20177;-73
2022/11/13 05:11:06;;;;;;;1.80;1.20;;;8.10;48.10;;;;;;5034040;28;20658;-73
2022/11/13 05:13:34;;;;;;;1.83;1.20;;;8.10;48.00;;;;;;5033856;28;20185;-73
2022/11/13 05:16:04;;;;;;;2.03;1.40;;;8.10;49.20;;;;;;5034128;28;20810;-73
2022/11/13 05:18:30;;;;;;;3.17;2.05;;;7.80;49.20;;;;;;5033121;28;20283;-73
2022/11/13 05:20:57;;;;;;;2.97;1.85;;;8.00;49.70;;;;;;5034183;28;20204;-73
2022/11/13 05:23:22;;;;;;;2.20;1.58;;;7.90;48.70;;;;;;5034084;28;20232;-73
2022/11/13 05:25:48;;;;;;;2.00;1.40;;;8.10;47.90;;;;;;5033170;28;20762;-73
2022/11/13 05:28:14;;;;;;;2.37;1.70;;;8.00;47.80;;;;;;5033207;28;20195;-73
2022/11/13 05:30:39;;;;;;;2.47;1.60;;;7.70;48.90;;;;;;5033031;28;20435;-73
2022/11/13 05:33:05;;;;;;;2.93;1.57;;;7.60;50.00;;;;;;5033107;28;20193;-73
2022/11/13 05:35:31;;;;;;;2.00;1.40;;;7.20;50.70;;;;;;5033142;28;20184;-73
2022/11/13 05:38:00;;;;;;;7.55;1.73;;;7.50;49.50;;;;;;5032743;28;20216;-73
2022/11/13 05:40:26;;;;;;;2.45;1.88;;;7.60;49.80;;;;;;5034195;28;20172;-73
2022/11/13 05:42:52;;;;;;;2.50;1.67;;;7.70;48.50;;;;;;5033057;28;20212;-73
2022/11/13 05:45:18;;;;;;;2.10;1.20;;;7.90;47.80;;;;;;5033640;28;20520;-73
2022/11/13 05:47:44;;;;;;;2.83;1.93;;;7.90;47.80;;;;;;5032680;28;20680;-73
2022/11/13 05:50:09;;;;;;;1.80;1.20;;;8.10;45.90;;;;;;5033597;28;20184;-73
2022/11/13 05:52:35;;;;;;;1.80;1.20;;;7.80;46.50;;;;;;5033172;28;20212;-73
2022/11/13 05:55:00;;;;;;;3.10;2.40;;;8.70;47.20;;;;;;5034783;28;20667;-74
2022/11/13 05:57:26;;;;;;;2.20;1.50;;;7.90;46.60;;;;;;5031701;28;20841;-73
2022/11/13 05:59:51;;;;;;;2.93;1.67;;;7.90;46.40;;;;;;5031905;28;20176;-73
2022/11/13 06:02:17;;;;;;;1.80;1.10;;;7.80;47.60;;;;;;5030309;28;20203;-73
2022/11/13 06:04:43;;;;;;;1.90;1.20;;;7.70;48.30;;;;;;5033915;28;20683;-73
2022/11/13 06:07:08;;;;;;;2.10;1.40;;;7.70;48.30;;;;;;5033098;28;20184;-73
2022/11/13 06:09:34;;;;;;;2.00;1.37;;;7.40;49.40;;;;;;5032621;28;20180;-73
2022/11/13 06:11:59;;;;;;;2.10;1.40;;;7.60;49.70;;;;;;5031609;28;20260;-73
2022/11/13 06:14:25;;;;;;;2.30;1.53;;;7.70;48.80;;;;;;5032135;28;20188;-73
2022/11/13 06:16:50;;;;;;;2.10;1.40;;;7.50;49.20;;;;;;5032229;28;20184;-73
2022/11/13 06:19:16;;;;;;;1.90;1.30;;;7.20;50.70;;;;;;5032879;28;20238;-73
2022/11/13 06:21:42;;;;;;;1.90;1.20;;;7.20;51.50;;;;;;5033074;28;20283;-73
2022/11/13 06:24:11;;;;;;;1.90;1.20;;;7.20;52.10;;;;;;5031908;28;20660;-73
2022/11/13 06:26:37;;;;;;;1.70;1.10;;;7.30;51.50;;;;;;5031173;28;20187;-73
2022/11/13 06:29:05;;;;;;;3.15;1.75;;;7.60;50.60;;;;;;5032278;28;20648;-73
2022/11/13 06:31:33;;;;;;;3.25;1.90;;;7.70;49.90;;;;;;5031313;28;20213;-73
2022/11/13 06:33:59;;;;;;;1.88;1.27;;;8.20;49.90;;;;;;5031507;28;20180;-73
2022/11/13 06:36:33;;;;;;;3.40;2.35;;;8.00;49.30;;;;;;5030498;28;20176;-73
2022/11/13 06:38:59;;;;;;;2.20;1.50;;;7.90;49.00;;;;;;5025252;28;20196;-73
2022/11/13 06:41:29;;;;;;;3.40;2.53;;;7.80;48.60;;;;;;5028037;28;20200;-73
2022/11/13 06:43:57;;;;;;;1.90;1.40;;;7.60;49.40;;;;;;5030411;28;20459;-73
2022/11/13 06:46:25;;;;;;;4.07;2.05;;;7.30;50.40;;;;;;5029355;28;20811;-73
2022/11/13 06:48:51;;;;;;;1.90;1.30;;;7.20;50.80;;;;;;5029478;28;20169;-73
2022/11/13 06:51:19;;;;;;;1.70;1.10;;;7.30;50.90;;;;;;5028434;28;20188;-73
2022/11/13 06:53:46;;;;;;;1.90;1.25;;;7.40;50.40;;;;;;5031009;28;20246;-73
2022/11/13 06:56:12;;;;;;;1.90;1.30;;;7.60;48.10;;;;;;5029996;28;20195;-73
2022/11/13 06:58:38;;;;;;;2.63;1.70;;;7.60;48.60;;;;;;5025773;28;20182;-73
2022/11/13 07:01:10;;;;;;;1.80;1.20;;;7.40;50.00;;;;;;5028944;28;20556;-73
2022/11/13 07:03:36;;;;;;;2.00;1.40;;;7.30;49.50;;;;;;5030001;28;20695;-73
2022/11/13 07:06:04;;;;;;;2.58;1.52;;;7.30;49.40;;;;;;5030330;28;20230;-73
2022/11/13 07:08:30;;;;;;;1.90;1.20;;;7.30;49.70;;;;;;5024310;28;20196;-73
2022/11/13 07:10:56;;;;;;;1.90;1.30;;;7.00;50.70;;;;;;5028159;28;20189;-73
2022/11/13 07:13:23;;;;;;;1.90;1.30;;;7.10;49.70;;;;;;5029354;28;20643;-73
2022/11/13 07:15:49;;;;;;;2.35;1.33;;;7.00;49.60;;;;;;5030638;28;20168;-73
2022/11/13 07:18:15;;;;;;;2.43;1.73;;;6.80;50.10;;;;;;5029525;28;20188;-73
2022/11/13 07:20:40;;;;;;;2.57;1.60;;;6.70;50.00;;;;;;5027278;28;20307;-73
2022/11/13 07:23:06;;;;;;;2.10;1.40;;;6.90;50.00;;;;;;5025355;28;20837;-73
2022/11/13 07:25:32;;;;;;;1.80;1.10;;;7.00;49.20;;;;;;5020492;28;20206;-73
2022/11/13 07:27:58;;;;;;;3.60;1.87;;;7.20;48.60;;;;;;5027565;28;20435;-73
2022/11/13 07:30:24;;;;;;;2.50;1.53;;;7.50;47.40;;;;;;5029529;28;20784;-73
2022/11/13 07:32:50;;;;;;;1.70;1.05;;;7.60;47.20;;;;;;5031667;28;20200;-73
2022/11/13 07:35:16;;;;;;;1.80;1.20;;;7.60;47.50;;;;;;5031688;28;20677;-73
2022/11/13 07:37:43;;;;;;;2.97;1.97;;;7.50;47.30;;;;;;5030697;28;20430;-73
2022/11/13 07:40:10;;;;;;;1.83;1.25;;;7.40;46.90;;;;;;5031944;28;20837;-73
2022/11/13 07:42:35;;;;;;;2.95;1.83;;;7.50;47.00;;;;;;5037761;28;20216;-73
2022/11/13 07:45:01;;;;;;;2.20;1.60;;;7.60;46.50;;;;;;5030433;28;20203;-73
2022/11/13 07:47:27;;;;;;;2.10;1.43;;;7.50;46.90;;;;;;5031136;28;20431;-73
2022/11/13 07:49:53;;;;;;;1.90;1.20;;;7.60;47.50;;;;;;5030976;28;20207;-73
2022/11/13 07:52:18;;;;;;;2.90;1.40;;;7.80;47.70;;;;;;5039248;28;20443;-73
2022/11/13 07:54:44;;;;;;;1.80;1.20;;;7.80;46.90;;;;;;5031232;28;20184;-73
2022/11/13 07:57:09;;;;;;;2.10;1.40;;;7.70;47.60;;;;;;5037704;28;20180;-73
2022/11/13 07:59:35;;;;;;;1.70;1.10;;;8.10;46.70;;;;;;5030301;28;20218;-73
2022/11/13 08:02:01;;;;;;;2.80;1.73;;;8.20;46.60;;;;;;5027519;28;20621;-73
2022/11/13 08:04:28;;;;;;;2.60;2.07;;;8.10;46.60;;;;;;5028371;28;20192;-73
2022/11/13 08:06:53;;;;;;;2.42;1.83;;;8.10;47.10;;;;;;5031115;28;20200;-73
2022/11/13 08:09:19;;;;;;;3.33;1.77;;;8.40;46.50;;;;;;5027712;28;20191;-73
2022/11/13 08:11:45;;;;;;;2.47;1.57;;;8.30;46.20;;;;;;5028586;28;20236;-73
2022/11/13 08:14:10;;;;;;;2.50;1.40;;;8.20;47.20;;;;;;5036721;28;20184;-73
2022/11/13 08:16:36;;;;;;;2.10;1.50;;;8.30;46.10;;;;;;5029957;28;20192;-73
2022/11/13 08:19:02;;;;;;;2.90;1.87;;;8.50;45.70;;;;;;5029000;28;20546;-73
2022/11/13 08:21:28;;;;;;;1.80;1.33;;;8.20;45.60;;;;;;5025164;28;20598;-73
2022/11/13 08:23:54;;;;;;;2.13;1.53;;;8.40;46.40;;;;;;5028328;28;20207;-73
2022/11/13 08:26:19;;;;;;;1.70;1.10;;;8.50;45.40;;;;;;5030263;28;20180;-73
2022/11/13 08:28:45;;;;;;;1.70;1.10;;;8.50;44.70;;;;;;5029549;28;20207;-73
2022/11/13 08:31:13;;;;;;;2.10;1.47;;;8.40;45.90;;;;;;5030107;28;20175;-73
2022/11/13 08:33:40;;;;;;;2.42;1.60;;;8.20;45.10;;;;;;5027838;28;20812;-76
2022/11/13 08:36:06;;;;;;;3.05;2.50;;;8.10;47.50;;;;;;5031835;28;20176;-84
2022/11/13 08:38:32;;;;;;;1.80;1.20;;;7.90;48.40;;;;;;5040025;28;20184;-84
2022/11/13 08:41:03;;;;;;;1.80;1.30;;;7.90;48.90;;;;;;5030416;28;20192;-84
2022/11/13 08:43:29;;;;;;;2.35;1.30;;;8.20;48.50;;;;;;5030675;28;20250;-83
2022/11/13 08:45:54;;;;;;;3.10;1.60;;;8.00;47.80;;;;;;5037791;28;20277;-84
2022/11/13 08:48:21;;;;;;;2.13;1.60;;;8.20;47.60;;;;;;5031843;28;20560;-84
2022/11/13 08:50:54;;;;;;;2.67;1.95;;;7.80;47.70;;;;;;5031786;28;20168;-84
2022/11/13 08:53:20;;;;;;;2.80;2.00;;;8.00;47.50;;;;;;5030840;28;20200;-77
2022/11/13 08:55:46;;;;;;;1.70;1.10;;;8.20;48.00;;;;;;5029075;28;20181;-76
2022/11/13 08:58:12;;;;;;;1.80;1.30;;;7.50;49.60;;;;;;5030339;28;20215;-77
2022/11/13 09:00:37;;;;;;;3.53;1.70;;;7.90;49.50;;;;;;5027787;28;20190;-76
2022/11/13 09:03:03;;;;;;;1.80;1.30;;;8.30;48.40;;;;;;5027361;28;20455;-76
2022/11/13 09:05:29;;;;;;;1.90;1.30;;;8.30;48.10;;;;;;5028677;28;20722;-76
2022/11/13 09:07:59;;;;;;;2.20;1.50;;;8.30;48.10;;;;;;5028850;28;20187;-76
2022/11/13 09:10:26;;;;;;;1.83;1.30;;;8.20;48.20;;;;;;5025574;28;20181;-76
2022/11/13 09:13:03;;;;;;;1.70;1.25;;;8.40;48.20;;;;;;5027160;28;20193;-76
2022/11/13 09:15:31;;;;;;;3.65;2.30;;;8.80;45.40;;;;;;5026136;28;20195;-76
2022/11/13 09:17:58;;;;;;;2.10;1.50;;;9.00;43.80;;;;;;5025594;28;20213;-76
2022/11/13 09:20:24;;;;;;;2.33;1.42;;;8.70;46.30;;;;;;5028174;28;20273;-77
2022/11/13 09:22:58;;;;;;;2.10;1.60;;;8.60;46.60;;;;;;5028731;28;20228;-76
2022/11/13 09:25:25;;;;;;;2.50;1.80;;;8.10;47.20;;;;;;5029535;28;20454;-75
2022/11/13 09:27:59;;;;;;;2.55;1.75;;;7.70;50.30;;;;;;5030399;28;20215;-76
2022/11/13 09:30:25;;;;;;;2.30;1.40;;;8.30;49.10;;;;;;5029570;28;20203;-76
2022/11/13 09:32:58;;;;;;;1.70;1.10;;;8.60;47.50;;;;;;5031272;28;20200;-76
2022/11/13 09:35:35;;;;;;;2.55;1.77;;;8.80;46.80;;;;;;5032892;28;20518;-76
2022/11/13 09:38:09;;;;;;;3.65;2.22;;;8.90;46.10;;;;;;5034140;28;20640;-76
2022/11/13 09:40:49;;;;;;;1.83;1.17;;;8.90;48.60;;;;;;5032483;28;20202;-76
2022/11/13 09:43:35;;;;;;;1.98;1.30;;;8.70;50.00;;;;;;5031738;28;20275;-76
2022/11/13 09:46:20;;;;;;;1.90;1.40;;;9.00;47.60;;;;;;5028092;28;20176;-75
2022/11/13 09:49:14;;;;;;;1.77;1.20;;;9.30;47.30;;;;;;5027377;28;20187;-75
2022/11/13 09:52:05;;;;;;;1.80;1.20;;;9.10;45.00;;;;;;5027846;28;20205;-75
2022/11/13 09:54:30;;;;;;;1.95;1.40;;;9.20;45.70;;;;;;5021827;28;20231;-75
2022/11/13 09:57:03;;;;;;;2.03;1.40;;;9.30;43.40;;;;;;5030949;28;20188;-75
2022/11/13 10:00:00;;;;;;;3.25;2.05;;;8.20;47.70;;;;;;5024437;28;20188;-75
2022/11/13 10:02:50;;;;;;;2.17;1.42;;;9.10;47.50;;;;;;5026805;28;20770;-75
2022/11/13 10:05:22;;;;;;;2.20;1.60;;;8.40;47.40;;;;;;5030652;28;20267;-75
2022/11/13 10:08:06;;;;;;;2.00;1.35;;;8.50;47.40;;;;;;5033021;28;20548;-75
2022/11/13 10:11:12;;;;;;;2.00;1.40;;;9.00;46.20;;;;;;5025172;28;20189;-76
2022/11/13 10:13:53;;;;;;;6.53;3.50;;;9.30;46.50;;;;;;5007514;28;20309;-75
2022/11/13 10:16:39;;;;;;;1.90;1.25;;;9.70;44.00;;;;;;5003181;28;20189;-75
2022/11/13 10:19:34;;;;;;;2.50;1.80;;;9.40;44.60;;;;;;5011726;28;20201;-75
2022/11/13 10:22:19;;;;;;;3.35;1.67;;;9.40;46.20;;;;;;5011649;28;20256;-75
2022/11/13 10:24:49;;;;;;;1.95;1.38;;;9.30;46.00;;;;;;5011208;28;20205;-77
2022/11/13 10:27:15;;;;;;;3.35;1.90;;;9.70;43.50;;;;;;5014978;28;20178;-78
2022/11/13 10:29:41;;;;;;;2.00;1.40;;;9.70;43.10;;;;;;5016822;28;20196;-78
2022/11/13 10:32:25;;;;;;;2.17;1.40;;;10.00;40.90;;;;;;5010853;28;20440;-75
2022/11/13 10:35:04;;;;;;;1.77;1.17;;;10.10;41.10;;;;;;5011483;28;20247;-75
2022/11/13 10:37:58;;;;;;;2.75;1.95;;;10.10;41.90;;;;;;5018423;28;20295;-76
2022/11/13 10:40:32;;;;;;;2.78;2.00;;;10.20;40.70;;;;;;5030681;28;20188;-76
2022/11/13 10:43:26;;;;;;;1.90;1.40;;;10.00;41.50;;;;;;5029475;28;20227;-76
2022/11/13 10:45:59;;;;;;;2.78;2.10;;;10.20;42.10;;;;;;4929165;29;20227;-77
2022/11/13 10:48:26;;;;;;;2.30;1.60;;;9.30;45.70;;;;;;4928980;29;20247;-76
2022/11/13 10:51:19;;;;;;;2.10;1.52;;;9.00;47.40;;;;;;4959745;28;20222;-76
2022/11/13 10:53:46;;;;;;;1.92;1.40;;;8.50;49.70;;;;;;4958970;28;20370;-76
2022/11/13 10:56:31;;;;;;;2.00;1.35;;;8.40;52.30;;;;;;4961531;28;20186;-76
2022/11/13 10:59:03;;;;;;;1.90;1.23;;;8.90;48.60;;;;;;4961492;28;20212;-78
2022/11/13 11:01:29;;;;;;;1.80;1.20;;;9.50;48.10;;;;;;4955196;28;20754;-76
2022/11/13 11:03:54;;;;;;;2.15;1.40;;;10.10;44.90;;;;;;4958046;28;20221;-78
2022/11/13 11:06:33;;;;;;;2.37;1.60;;;9.80;46.30;;;;;;4941006;28;20167;-78
2022/11/13 11:09:25;;;;;;;2.33;1.70;;;9.50;46.90;;;;;;4955823;28;20197;-78
2022/11/13 11:12:19;;;;;;;2.33;1.67;;;9.50;47.40;;;;;;4955458;28;20756;-77
2022/11/13 11:14:57;;;;;;;4.68;2.42;;;10.30;44.90;;;;;;4956705;28;20270;-76
2022/11/13 11:17:41;;;;;;;2.47;1.73;;;10.40;44.30;;;;;;4955420;28;20595;-79
2022/11/13 11:20:19;;;;;;;2.10;1.48;;;10.10;44.60;;;;;;4956530;28;20217;-76
2022/11/13 11:22:48;;;;;;;2.10;1.48;;;9.80;46.10;;;;;;5001769;28;20994;-76
2022/11/13 11:25:25;;;;;;;2.00;1.40;;;9.90;46.30;;;;;;5028357;28;20221;-77
2022/11/13 11:28:39;;;;;;;4.72;1.90;;;9.90;46.50;;;;;;5029782;28;20311;-76
2022/11/13 11:31:16;;;;;;;1.85;1.20;;;9.30;47.90;;;;;;5008912;28;20640;-76
2022/11/13 11:34:10;;;;;;;1.70;1.15;;;8.90;51.50;;;;;;5024089;28;20209;-76
2022/11/13 11:36:58;;;;;;;1.90;1.30;;;9.70;49.00;;;;;;5029689;28;20187;-76
2022/11/13 11:39:31;;;;;;;5.45;3.28;;;10.00;46.60;;;;;;5024273;28;20198;-76
2022/11/13 11:42:09;;;;;;;3.45;2.40;;;9.90;47.90;;;;;;5026683;28;20216;-77
2022/11/13 11:44:50;;;;;;;2.85;1.90;;;10.10;46.40;;;;;;5028907;28;20209;-77
2022/11/13 11:47:16;;;;;;;2.58;1.80;;;10.10;45.00;;;;;;5028712;28;20517;-77
2022/11/13 11:49:44;;;;;;;2.00;1.30;;;10.40;43.80;;;;;;5028979;28;20204;-77
2022/11/13 11:52:38;;;;;;;2.78;1.40;;;10.70;43.40;;;;;;5029094;28;20195;-77
2022/11/13 11:55:12;;;;;;;2.03;1.30;;;10.50;44.40;;;;;;5020327;28;20207;-77
2022/11/13 11:57:56;;;;;;;2.72;1.83;;;10.60;44.90;;;;;;5025943;28;20593;-78
2022/11/13 12:00:22;;;;;;;1.90;1.23;;;10.70;45.90;;;;;;5027613;28;20183;-78
2022/11/13 12:03:12;;;;;;;2.97;2.27;;;11.00;44.60;;;;;;5029239;28;20207;-76
2022/11/13 12:06:18;;;;;;;2.47;1.65;;;11.20;43.50;;;;;;5025198;28;20197;-76
2022/11/13 12:09:07;;;;;;;2.80;1.65;;;11.20;43.60;;;;;;5025530;28;20703;-76
2022/11/13 12:11:35;;;;;;;2.27;1.67;;;11.50;42.10;;;;;;5026086;28;20217;-76
2022/11/13 12:14:40;;;;;;;2.33;1.40;;;11.60;43.20;;;;;;5027209;28;20968;-76
2022/11/13 12:17:47;;;;;;;2.00;1.40;;;11.80;41.60;;;;;;5026452;28;20201;-75
2022/11/13 12:22:48;;;;;;;2.80;1.70;;;12.30;40.20;;;;;;4975696;23;20232;-74
2022/11/13 12:25:32;;;;;;;2.20;1.43;;;12.30;39.20;;;;;;4973094;28;20841;-74
2022/11/13 12:28:23;;;;;;;2.20;1.43;;;12.20;40.20;;;;;;4973195;28;20229;-75
2022/11/13 12:30:52;;;;;;;2.80;1.80;;;11.80;41.00;;;;;;4960544;28;20450;-75
2022/11/13 12:33:26;;;;;;;2.40;1.63;;;12.10;39.30;;;;;;4952981;29;20438;-74
2022/11/13 12:35:53;;;;;;;2.10;1.23;;;12.50;38.50;;;;;;4952079;29;20887;-74
2022/11/13 12:38:50;;;;;;;2.77;1.60;;;13.00;39.20;;;;;;4953224;29;20481;-74
2022/11/13 12:41:55;;;;;;;2.47;1.57;;;13.00;36.40;;;;;;4951947;28;20458;-75
2022/11/13 12:44:26;;;;;;;2.40;1.53;;;13.10;35.80;;;;;;4953345;28;20477;-74
2022/11/13 12:46:54;;;;;;;3.30;2.17;;;12.20;37.50;;;;;;4951970;28;20477;-75
2022/11/13 12:49:27;;;;;;;2.00;1.20;;;12.10;39.50;;;;;;4951383;28;20454;-75
2022/11/13 12:52:02;;;;;;;2.40;1.60;;;12.10;40.10;;;;;;4950586;29;20455;-76
2022/11/13 12:54:35;;;;;;;2.73;1.77;;;12.00;39.70;;;;;;4953032;29;20518;-75
2022/11/13 12:57:06;;;;;;;2.90;1.60;;;12.40;40.60;;;;;;4951824;28;20447;-77
2022/11/13 12:59:35;;;;;;;3.07;1.80;;;12.70;39.00;;;;;;4952242;28;20492;-76
2022/11/13 13:02:07;;;;;;;4.00;2.03;;;12.90;38.90;;;;;;4951536;29;20461;-75
2022/11/13 13:05:10;;;;;;;2.20;1.40;;;13.40;37.70;;;;;;4944491;29;20459;-76
2022/11/13 13:07:51;;;;;;;2.20;1.30;;;13.70;38.30;;;;;;4949553;28;20553;-75
2022/11/13 13:10:30;;;;;;;2.20;1.20;;;14.10;36.20;;;;;;4935975;28;20434;-76
2022/11/13 13:13:24;;;;;;;2.70;1.60;;;14.10;35.50;;;;;;4960033;28;20426;-76
2022/11/13 13:15:56;;;;;;;2.27;1.30;;;14.40;36.50;;;;;;4930483;29;20546;-76
2022/11/13 13:18:22;;;;;;;3.03;1.83;;;14.80;35.20;;;;;;4955873;28;20434;-76